Proctorsville, Vermont
Current Conditions -  °F | °C
As of 3:35 AM on Saturday 29 Nov 2014 (Local Time) from KRUT Reporting Station
Clear Clear  
Wind Chill: -2°   Ceiling: Unl
Heat Index: 10°   Visibility: 10mi
Dew Point:   Wind: 8mph
Humidity: 79%   Direction: 130°SE
Pressure: 30.2"   Gusts: NA
Location:  43.38°N, 72.64°W
Report Text: KRUT 290835Z 13007KT 10SM CLR M12/M15 A3020 RMK AO1
Loading
Personal Weather Stations






























Interactive Weather Map New forecast layout! Learn more

10-Day Weather Forecast

Advertisements
Track Severe Weather on mobile